Time;durP1;ratioP1;P1;durP2;ratioP2;P2;SDS_P1;SDS_P2;PMS_P1;PMS_P2;Temp;Humidity;BMP_temperature;BMP_pressure;BME280_temperature;BME280_humidity;BME280_pressure;Samples;Min_cycle;Max_cycle;Signal;HPM_P1;HPM_P2
2021/09/19 00:01:08;;;;;;;10.17;5.90;;;11.10;87.90;;;;;;5074031;28;20263;-88
2021/09/19 00:03:33;;;;;;;12.10;6.23;;;11.20;87.80;;;;;;5075242;28;20600;-88
2021/09/19 00:05:59;;;;;;;20.10;6.67;;;11.20;87.50;;;;;;5075130;28;20168;-88
2021/09/19 00:08:27;;;;;;;7.13;5.03;;;11.20;87.40;;;;;;5073981;28;20663;-88
2021/09/19 00:10:53;;;;;;;9.30;5.40;;;11.20;87.40;;;;;;5073937;28;20211;-88
2021/09/19 00:13:19;;;;;;;6.47;4.87;;;11.10;87.70;;;;;;5073789;28;20203;-88
2021/09/19 00:15:45;;;;;;;8.00;5.30;;;11.00;87.90;;;;;;5073852;28;20183;-88
2021/09/19 00:18:10;;;;;;;10.00;5.87;;;11.10;88.00;;;;;;5074974;28;20252;-88
2021/09/19 00:20:38;;;;;;;8.33;5.50;;;11.00;88.10;;;;;;5074956;28;20258;-87
2021/09/19 00:23:04;;;;;;;7.93;5.07;;;11.10;88.20;;;;;;5074843;28;20193;-87
2021/09/19 00:25:29;;;;;;;6.67;5.20;;;11.10;88.20;;;;;;5073503;28;20179;-87
2021/09/19 00:27:55;;;;;;;8.63;5.00;;;11.10;88.30;;;;;;5073526;28;20180;-87
2021/09/19 00:30:21;;;;;;;6.90;5.47;;;11.20;88.40;;;;;;5073485;28;20197;-88
2021/09/19 00:32:47;;;;;;;8.70;5.47;;;11.40;88.30;;;;;;5074592;28;20222;-88
2021/09/19 00:35:12;;;;;;;10.63;5.30;;;11.50;88.20;;;;;;5074511;28;20199;-88
2021/09/19 00:37:38;;;;;;;8.90;5.70;;;11.50;88.00;;;;;;5073410;28;20203;-88
2021/09/19 00:40:05;;;;;;;9.13;5.50;;;11.50;88.00;;;;;;5073119;28;20240;-88
2021/09/19 00:42:31;;;;;;;5.87;5.27;;;11.60;88.20;;;;;;5074352;28;20192;-88
2021/09/19 00:45:06;;;;;;;6.53;5.40;;;11.60;88.40;;;;;;5073255;28;20185;-87
2021/09/19 00:47:32;;;;;;;6.80;5.27;;;11.70;88.80;;;;;;5073123;28;20187;-87
2021/09/19 00:49:58;;;;;;;7.73;5.67;;;11.70;88.90;;;;;;5073115;28;20190;-87
2021/09/19 00:52:24;;;;;;;10.13;6.00;;;11.70;89.00;;;;;;5072986;28;20294;-88
2021/09/19 00:54:50;;;;;;;10.93;5.83;;;11.70;89.10;;;;;;5073155;28;20210;-88
2021/09/19 00:57:17;;;;;;;8.50;5.80;;;11.80;89.30;;;;;;5072898;28;20328;-88
2021/09/19 00:59:49;;;;;;;8.63;6.10;;;11.80;89.50;;;;;;5072741;28;20183;-87
2021/09/19 01:02:15;;;;;;;8.07;5.93;;;11.80;89.40;;;;;;5074040;28;20188;-88
2021/09/19 01:04:41;;;;;;;12.53;6.27;;;11.90;89.40;;;;;;5072965;28;20175;-87
2021/09/19 01:07:07;;;;;;;10.53;5.90;;;11.90;89.30;;;;;;5072658;28;20186;-88
2021/09/19 01:09:35;;;;;;;9.60;6.27;;;11.90;89.40;;;;;;5072642;28;20713;-88
2021/09/19 01:12:01;;;;;;;10.57;6.77;;;11.90;89.60;;;;;;5073828;28;20693;-88
2021/09/19 01:14:28;;;;;;;10.23;6.30;;;11.80;89.70;;;;;;5072625;28;20183;-88
2021/09/19 01:16:56;;;;;;;20.83;6.40;;;11.90;89.70;;;;;;5073795;28;20643;-88
2021/09/19 01:19:24;;;;;;;8.03;6.40;;;11.90;89.70;;;;;;5074104;28;20250;-88
2021/09/19 01:21:51;;;;;;;8.53;5.90;;;12.00;89.60;;;;;;5072435;28;20192;-88
2021/09/19 01:24:17;;;;;;;14.20;6.30;;;12.00;89.50;;;;;;5072516;28;20172;-88
2021/09/19 01:26:42;;;;;;;10.73;6.73;;;12.00;89.40;;;;;;5072349;28;20616;-88
2021/09/19 01:29:08;;;;;;;12.37;5.90;;;12.00;89.50;;;;;;5073676;28;20229;-88
2021/09/19 01:31:35;;;;;;;12.27;6.30;;;12.10;89.60;;;;;;5072218;28;20229;-88
2021/09/19 01:34:01;;;;;;;10.03;5.70;;;12.10;89.30;;;;;;5072311;28;20171;-88
2021/09/19 01:36:26;;;;;;;8.57;5.57;;;12.10;89.30;;;;;;5072398;28;20187;-88
2021/09/19 01:38:52;;;;;;;9.10;6.10;;;12.00;89.60;;;;;;5073821;28;20195;-87
2021/09/19 01:41:20;;;;;;;10.83;5.90;;;12.00;89.50;;;;;;5072284;28;20175;-88
2021/09/19 01:43:46;;;;;;;9.37;6.23;;;12.00;89.50;;;;;;5072380;28;20171;-88
2021/09/19 01:46:12;;;;;;;9.03;6.13;;;12.00;89.50;;;;;;5072246;28;20167;-88
2021/09/19 01:48:39;;;;;;;10.07;6.33;;;12.00;89.50;;;;;;5073372;28;20175;-88
2021/09/19 01:51:06;;;;;;;9.43;5.57;;;12.00;89.50;;;;;;5072085;28;20183;-88
2021/09/19 01:53:32;;;;;;;7.10;5.90;;;12.10;89.50;;;;;;5073742;28;20215;-87
2021/09/19 01:55:58;;;;;;;12.83;6.57;;;12.10;89.40;;;;;;5072180;28;20171;-88
2021/09/19 01:58:24;;;;;;;8.70;5.57;;;12.10;89.40;;;;;;5073490;28;20191;-88
2021/09/19 02:01:00;;;;;;;8.77;6.20;;;12.10;89.50;;;;;;5073367;28;20189;-87
2021/09/19 02:03:26;;;;;;;8.10;5.67;;;12.10;89.40;;;;;;5072064;28;20200;-88
2021/09/19 02:05:52;;;;;;;6.30;5.37;;;12.10;89.30;;;;;;5072120;28;20167;-88
2021/09/19 02:08:18;;;;;;;12.13;5.63;;;12.10;89.00;;;;;;5073575;28;20226;-88
2021/09/19 02:10:44;;;;;;;8.37;5.37;;;12.10;88.60;;;;;;5072015;28;20206;-88
2021/09/19 02:13:09;;;;;;;9.43;5.70;;;12.20;88.40;;;;;;5071979;28;20218;-88
2021/09/19 02:15:35;;;;;;;7.67;5.50;;;12.20;88.40;;;;;;5072003;28;20593;-88
2021/09/19 02:18:00;;;;;;;13.37;6.20;;;12.20;88.70;;;;;;5073032;28;20202;-88
2021/09/19 02:20:27;;;;;;;8.57;5.53;;;12.20;88.80;;;;;;5073346;28;20171;-88
2021/09/19 02:22:52;;;;;;;13.20;5.63;;;12.10;88.90;;;;;;5073103;28;20191;-88
2021/09/19 02:25:18;;;;;;;9.33;5.70;;;12.10;89.10;;;;;;5073352;28;20171;-88
2021/09/19 02:27:44;;;;;;;7.60;6.00;;;12.10;89.00;;;;;;5071795;28;20175;-88
2021/09/19 02:30:13;;;;;;;9.17;6.30;;;12.10;89.00;;;;;;5072947;28;20171;-88
2021/09/19 02:32:39;;;;;;;16.07;6.30;;;12.10;88.90;;;;;;5071570;28;20195;-88
2021/09/19 02:35:07;;;;;;;9.97;5.30;;;12.10;88.70;;;;;;5073322;28;20198;-87
2021/09/19 02:37:32;;;;;;;11.97;6.13;;;12.10;88.70;;;;;;5071625;28;20720;-88
2021/09/19 02:39:58;;;;;;;11.70;5.80;;;12.10;88.90;;;;;;5071821;28;20209;-87
2021/09/19 02:42:24;;;;;;;8.57;6.27;;;12.10;88.80;;;;;;5074966;28;20190;-88
2021/09/19 02:44:49;;;;;;;12.67;5.73;;;12.10;88.80;;;;;;5076835;28;20174;-88
2021/09/19 02:47:15;;;;;;;9.87;6.10;;;12.10;88.70;;;;;;5076738;28;20168;-88
2021/09/19 02:49:41;;;;;;;11.97;5.77;;;12.10;88.70;;;;;;5075367;28;20324;-88
2021/09/19 02:52:06;;;;;;;9.90;5.97;;;12.10;88.70;;;;;;5075357;28;20203;-88
2021/09/19 02:54:32;;;;;;;9.20;6.30;;;12.10;88.80;;;;;;5075290;28;20179;-88
2021/09/19 02:56:58;;;;;;;13.53;6.40;;;12.10;88.90;;;;;;5075161;28;20175;-88
2021/09/19 02:59:23;;;;;;;11.90;6.70;;;12.00;89.00;;;;;;5075177;28;20168;-88
2021/09/19 03:01:49;;;;;;;8.27;5.80;;;12.00;89.20;;;;;;5076299;28;20179;-88
2021/09/19 03:04:15;;;;;;;16.93;7.50;;;12.00;89.00;;;;;;5075272;28;20262;-88
2021/09/19 03:06:40;;;;;;;12.07;6.77;;;12.10;89.00;;;;;;5076449;28;20213;-88
2021/09/19 03:09:06;;;;;;;9.10;6.47;;;12.00;89.00;;;;;;5075149;28;20717;-88
2021/09/19 03:11:32;;;;;;;10.87;6.53;;;12.00;89.10;;;;;;5074991;28;20222;-88
2021/09/19 03:13:58;;;;;;;9.60;6.83;;;12.00;89.20;;;;;;5074953;28;20175;-88
2021/09/19 03:16:23;;;;;;;10.70;5.80;;;12.00;89.10;;;;;;5075028;28;20179;-88
2021/09/19 03:18:49;;;;;;;10.00;6.03;;;12.00;89.00;;;;;;5074891;28;20200;-88
2021/09/19 03:21:15;;;;;;;10.13;6.43;;;12.10;88.90;;;;;;5075975;28;20167;-88
2021/09/19 03:23:41;;;;;;;10.70;6.83;;;12.10;88.70;;;;;;5074881;28;20167;-87
2021/09/19 03:26:06;;;;;;;7.57;5.70;;;12.10;88.60;;;;;;5076302;28;20205;-88
2021/09/19 03:28:33;;;;;;;14.43;5.80;;;12.10;88.50;;;;;;5074537;28;20183;-88
2021/09/19 03:30:59;;;;;;;14.50;5.73;;;12.10;88.20;;;;;;5074687;28;20183;-87
2021/09/19 03:33:24;;;;;;;10.80;5.80;;;12.10;88.00;;;;;;5075722;28;20206;-88
2021/09/19 03:35:50;;;;;;;11.00;5.73;;;12.10;87.90;;;;;;5076344;28;20286;-88
2021/09/19 03:38:16;;;;;;;8.83;5.17;;;12.10;88.00;;;;;;5074455;28;20202;-88
2021/09/19 03:40:42;;;;;;;8.90;5.77;;;12.10;88.00;;;;;;5074490;28;20176;-88
2021/09/19 03:43:07;;;;;;;11.90;6.37;;;12.10;88.20;;;;;;5074446;28;20187;-88
2021/09/19 03:45:33;;;;;;;7.53;5.47;;;12.10;88.20;;;;;;5075690;28;20222;-88
2021/09/19 03:48:04;;;;;;;7.80;5.87;;;12.10;88.10;;;;;;5075609;28;20560;-88
2021/09/19 03:50:30;;;;;;;14.07;6.33;;;12.10;88.20;;;;;;5074226;28;20209;-88
2021/09/19 03:52:56;;;;;;;13.80;5.57;;;12.10;88.40;;;;;;5073830;28;20318;-88
2021/09/19 03:55:22;;;;;;;7.03;5.33;;;12.10;88.30;;;;;;5075466;28;20179;-88
2021/09/19 03:57:47;;;;;;;8.63;4.90;;;12.10;87.60;;;;;;5074058;28;20670;-88
2021/09/19 04:00:13;;;;;;;11.63;5.07;;;12.20;87.00;;;;;;5074121;28;20654;-88
2021/09/19 04:02:39;;;;;;;6.97;4.97;;;12.10;86.80;;;;;;5073949;28;20203;-88
2021/09/19 04:05:05;;;;;;;7.70;4.93;;;12.20;86.40;;;;;;5075191;28;20650;-88
2021/09/19 04:07:31;;;;;;;7.63;5.40;;;12.20;86.40;;;;;;5073976;28;20183;-88
2021/09/19 04:09:57;;;;;;;14.13;5.37;;;12.20;87.10;;;;;;5073946;28;20180;-88
2021/09/19 04:12:22;;;;;;;8.47;5.83;;;12.10;87.60;;;;;;5073890;28;20203;-88
2021/09/19 04:14:48;;;;;;;11.60;5.60;;;12.10;87.60;;;;;;5073854;28;20182;-88
2021/09/19 04:17:13;;;;;;;14.03;6.23;;;12.10;87.80;;;;;;5073747;28;20257;-88
2021/09/19 04:19:39;;;;;;;7.97;5.90;;;12.10;87.80;;;;;;5075057;28;20171;-88
2021/09/19 04:22:05;;;;;;;12.00;6.07;;;12.10;87.90;;;;;;5074818;28;20199;-87
2021/09/19 04:24:30;;;;;;;9.83;5.87;;;12.10;88.30;;;;;;5074786;28;20167;-88
2021/09/19 04:26:56;;;;;;;10.00;5.43;;;12.00;88.60;;;;;;5073557;28;20234;-88
2021/09/19 04:29:22;;;;;;;9.53;6.03;;;12.00;88.50;;;;;;5073932;28;20547;-88
2021/09/19 04:31:47;;;;;;;12.77;6.10;;;12.00;88.40;;;;;;5073324;28;20194;-88
2021/09/19 04:34:13;;;;;;;8.73;6.07;;;12.00;88.00;;;;;;5073519;28;20175;-88
2021/09/19 04:36:39;;;;;;;9.63;5.50;;;12.00;88.10;;;;;;5074842;28;20160;-87
2021/09/19 04:39:04;;;;;;;9.50;6.07;;;12.00;88.20;;;;;;5074534;28;20199;-88
2021/09/19 04:41:30;;;;;;;9.00;5.87;;;12.00;88.30;;;;;;5073166;28;20590;-87
2021/09/19 04:43:56;;;;;;;15.93;5.40;;;12.00;88.20;;;;;;5074673;28;20175;-88
2021/09/19 04:46:21;;;;;;;9.00;5.50;;;12.00;88.40;;;;;;5074373;28;20176;-88
2021/09/19 04:48:47;;;;;;;9.27;6.10;;;12.00;88.30;;;;;;5073145;28;20183;-88
2021/09/19 04:51:13;;;;;;;9.37;6.27;;;12.00;88.30;;;;;;5073026;28;20175;-88
2021/09/19 04:53:38;;;;;;;8.77;6.03;;;12.00;88.20;;;;;;5073751;28;20176;-88
2021/09/19 04:56:04;;;;;;;14.00;5.80;;;12.00;88.40;;;;;;5074422;28;20596;-88
2021/09/19 04:58:29;;;;;;;8.03;5.23;;;12.00;88.40;;;;;;5072824;28;20675;-88
2021/09/19 05:00:55;;;;;;;10.00;5.40;;;12.10;88.50;;;;;;5073219;28;20609;-88
2021/09/19 05:03:21;;;;;;;8.97;5.73;;;12.00;88.00;;;;;;5073920;28;20274;-88
2021/09/19 05:05:47;;;;;;;7.03;5.47;;;12.10;88.20;;;;;;5073367;28;20199;-88
2021/09/19 05:08:13;;;;;;;7.07;5.37;;;12.20;87.90;;;;;;5074101;28;20182;-88
2021/09/19 05:10:39;;;;;;;9.03;5.63;;;12.10;87.90;;;;;;5072760;28;20215;-87
2021/09/19 05:13:04;;;;;;;7.93;5.30;;;12.10;88.20;;;;;;5072625;28;20203;-86
2021/09/19 05:15:30;;;;;;;10.53;5.60;;;12.10;88.30;;;;;;5073877;28;20179;-87
2021/09/19 05:17:55;;;;;;;8.50;6.00;;;12.10;88.50;;;;;;5072431;28;20199;-87
2021/09/19 05:20:23;;;;;;;12.87;6.10;;;12.00;88.70;;;;;;5072558;28;20179;-87
2021/09/19 05:22:49;;;;;;;10.13;5.57;;;12.00;88.80;;;;;;5073728;28;20611;-87
2021/09/19 05:25:14;;;;;;;8.97;5.90;;;12.10;88.70;;;;;;5072423;28;20292;-87
2021/09/19 05:27:40;;;;;;;7.50;5.57;;;12.00;88.80;;;;;;5073688;28;20186;-87
2021/09/19 05:30:06;;;;;;;15.30;6.07;;;12.10;88.90;;;;;;5072374;28;20744;-87
2021/09/19 05:32:32;;;;;;;8.23;5.30;;;12.00;89.00;;;;;;5072141;28;20199;-87
2021/09/19 05:34:57;;;;;;;7.70;5.53;;;12.00;89.00;;;;;;5073798;28;20191;-87
2021/09/19 05:37:23;;;;;;;9.33;5.67;;;12.00;89.10;;;;;;5072684;28;20203;-87
2021/09/19 05:39:48;;;;;;;8.20;5.07;;;12.00;89.20;;;;;;5072240;28;20697;-87
2021/09/19 05:42:14;;;;;;;7.50;5.40;;;12.00;89.20;;;;;;5072240;28;20689;-87
2021/09/19 05:44:40;;;;;;;15.93;5.90;;;12.00;89.00;;;;;;5073747;28;20171;-87
2021/09/19 05:47:05;;;;;;;11.13;6.00;;;12.00;88.80;;;;;;5073170;28;20172;-87
2021/09/19 05:49:32;;;;;;;9.27;5.73;;;12.00;88.80;;;;;;5073504;28;20171;-87
2021/09/19 05:51:58;;;;;;;9.37;5.70;;;12.00;89.00;;;;;;5073433;28;20188;-87
2021/09/19 05:54:23;;;;;;;10.37;5.60;;;12.00;88.80;;;;;;5072067;28;20540;-87
2021/09/19 05:56:49;;;;;;;7.70;5.60;;;12.00;88.80;;;;;;5072074;28;20171;-87
2021/09/19 05:59:14;;;;;;;6.20;5.33;;;12.00;88.60;;;;;;5071985;28;20264;-88
2021/09/19 06:01:40;;;;;;;8.30;5.27;;;12.00;88.70;;;;;;5072078;28;20202;-88
2021/09/19 06:04:06;;;;;;;7.33;5.50;;;12.00;88.60;;;;;;5072412;28;20175;-89
2021/09/19 06:06:31;;;;;;;9.03;5.60;;;12.10;88.70;;;;;;5073793;28;20172;-88
2021/09/19 06:08:57;;;;;;;8.33;6.43;;;12.10;88.80;;;;;;5073564;28;20213;-88
2021/09/19 06:11:23;;;;;;;12.17;6.07;;;12.10;88.20;;;;;;5072134;28;20179;-89
2021/09/19 06:13:48;;;;;;;10.07;5.63;;;12.20;88.50;;;;;;5072154;28;20266;-88
2021/09/19 06:16:14;;;;;;;8.10;5.97;;;12.20;88.70;;;;;;5075058;28;20179;-88
2021/09/19 06:18:40;;;;;;;7.80;5.43;;;12.30;88.70;;;;;;5076312;28;20199;-88
2021/09/19 06:21:05;;;;;;;5.87;4.73;;;12.30;88.60;;;;;;5076141;28;20225;-88
2021/09/19 06:23:31;;;;;;;9.40;6.20;;;12.20;88.70;;;;;;5076054;28;20195;-88
2021/09/19 06:25:57;;;;;;;6.40;5.20;;;12.30;88.50;;;;;;5076057;28;20258;-88
2021/09/19 06:28:23;;;;;;;7.50;5.27;;;12.20;88.30;;;;;;5076049;28;20175;-88
2021/09/19 06:30:49;;;;;;;12.17;5.27;;;12.20;87.70;;;;;;5077409;28;20179;-88
2021/09/19 06:33:14;;;;;;;8.60;4.90;;;12.30;87.70;;;;;;5077022;28;20240;-88
2021/09/19 06:35:41;;;;;;;9.00;4.80;;;12.30;87.40;;;;;;5077187;28;20663;-88
2021/09/19 06:38:07;;;;;;;5.93;4.67;;;12.30;87.40;;;;;;5076984;28;20199;-87
2021/09/19 06:40:33;;;;;;;6.37;5.07;;;12.30;87.30;;;;;;5075628;28;20579;-87
2021/09/19 06:42:58;;;;;;;7.60;4.90;;;12.40;87.30;;;;;;5076798;28;20202;-87
2021/09/19 06:45:24;;;;;;;9.47;5.13;;;12.40;86.70;;;;;;5075548;28;20175;-87
2021/09/19 06:47:50;;;;;;;8.60;4.80;;;12.40;86.80;;;;;;5076784;28;20201;-87
2021/09/19 06:50:16;;;;;;;6.97;5.07;;;12.40;87.00;;;;;;5076879;28;20172;-87
2021/09/19 06:52:41;;;;;;;10.00;4.97;;;12.40;86.50;;;;;;5075231;28;20610;-88
2021/09/19 06:55:08;;;;;;;7.73;4.90;;;12.40;86.40;;;;;;5075269;28;20175;-87
2021/09/19 06:57:34;;;;;;;8.93;4.90;;;12.50;86.70;;;;;;5076332;28;20753;-87
2021/09/19 07:00:00;;;;;;;7.63;4.83;;;12.50;86.60;;;;;;5075133;28;20262;-87
2021/09/19 07:02:25;;;;;;;7.33;4.53;;;12.50;86.00;;;;;;5075058;28;20287;-87
2021/09/19 07:04:51;;;;;;;8.10;5.27;;;12.50;86.20;;;;;;5076375;28;20172;-88
2021/09/19 07:07:18;;;;;;;7.83;4.80;;;12.50;86.00;;;;;;5075034;28;20207;-87
2021/09/19 07:09:44;;;;;;;9.30;4.90;;;12.50;85.50;;;;;;5075012;28;20190;-87
2021/09/19 07:12:10;;;;;;;9.80;4.53;;;12.60;85.70;;;;;;5074987;28;20621;-87
2021/09/19 07:14:35;;;;;;;7.10;4.40;;;12.60;86.10;;;;;;5074977;28;20179;-87
2021/09/19 07:17:01;;;;;;;6.70;4.73;;;12.60;86.00;;;;;;5074879;28;20175;-87
2021/09/19 07:19:27;;;;;;;8.40;4.40;;;12.70;85.70;;;;;;5074881;28;20262;-87
2021/09/19 07:21:52;;;;;;;6.10;4.50;;;12.70;85.10;;;;;;5074682;28;20222;-87
2021/09/19 07:24:19;;;;;;;6.70;4.67;;;12.70;84.80;;;;;;5074777;28;20183;-88
2021/09/19 07:26:45;;;;;;;7.37;4.73;;;12.80;85.50;;;;;;5076149;28;20290;-87
2021/09/19 07:29:11;;;;;;;5.63;4.00;;;12.80;85.20;;;;;;5074983;28;20214;-87
2021/09/19 07:31:36;;;;;;;5.90;4.00;;;12.80;84.50;;;;;;5074403;28;20675;-87
2021/09/19 07:34:03;;;;;;;6.50;4.23;;;12.90;83.80;;;;;;5074533;28;20644;-88
2021/09/19 07:36:34;;;;;;;5.37;4.10;;;12.80;83.50;;;;;;5074713;28;20172;-87
2021/09/19 07:39:02;;;;;;;5.77;3.50;;;12.90;83.30;;;;;;5075617;28;20196;-87
2021/09/19 07:41:29;;;;;;;7.00;3.87;;;12.90;83.00;;;;;;5074332;28;20186;-87
2021/09/19 07:43:55;;;;;;;6.53;4.10;;;13.00;83.10;;;;;;5075678;28;20171;-87
2021/09/19 07:46:22;;;;;;;5.87;3.87;;;13.00;83.10;;;;;;5074372;28;20244;-88
2021/09/19 07:48:48;;;;;;;4.87;3.90;;;13.00;82.40;;;;;;5074267;28;20598;-87
2021/09/19 07:51:13;;;;;;;14.53;4.63;;;13.10;81.80;;;;;;5074060;28;20187;-87
2021/09/19 07:53:40;;;;;;;9.43;4.00;;;13.20;81.70;;;;;;5074083;28;20175;-88
2021/09/19 07:56:05;;;;;;;4.20;3.70;;;13.20;81.60;;;;;;5075360;28;20183;-88
2021/09/19 07:58:31;;;;;;;7.67;4.40;;;13.20;81.60;;;;;;5074039;28;20203;-87
2021/09/19 08:00:57;;;;;;;4.13;3.73;;;13.30;81.10;;;;;;5074102;28;20179;-88
2021/09/19 08:03:22;;;;;;;7.67;3.80;;;13.40;80.90;;;;;;5073837;28;20230;-87
2021/09/19 08:05:48;;;;;;;4.57;3.80;;;13.40;80.50;;;;;;5073945;28;20180;-87
2021/09/19 08:08:14;;;;;;;4.67;3.27;;;13.40;79.00;;;;;;5074054;28;20187;-87
2021/09/19 08:10:39;;;;;;;5.30;4.00;;;13.50;79.00;;;;;;5075075;28;20182;-88
2021/09/19 08:13:06;;;;;;;3.80;3.50;;;13.50;79.70;;;;;;5073754;28;20195;-87
2021/09/19 08:15:32;;;;;;;4.23;3.77;;;13.60;80.50;;;;;;5073727;28;20175;-88
2021/09/19 08:17:58;;;;;;;4.57;3.57;;;13.50;79.40;;;;;;5073827;28;20667;-88
2021/09/19 08:20:24;;;;;;;12.80;4.03;;;13.60;78.80;;;;;;5073762;28;20182;-87
2021/09/19 08:22:49;;;;;;;5.80;4.10;;;13.60;78.50;;;;;;5073508;28;20191;-87
2021/09/19 08:25:16;;;;;;;5.33;3.60;;;13.60;77.80;;;;;;5073646;28;20232;-87
2021/09/19 08:27:43;;;;;;;6.20;3.77;;;13.70;78.50;;;;;;5073802;28;20199;-87
2021/09/19 08:30:11;;;;;;;5.60;3.10;;;13.70;78.40;;;;;;5074727;28;20232;-88
2021/09/19 08:32:38;;;;;;;11.27;3.90;;;13.80;78.80;;;;;;5073385;28;20203;-87
2021/09/19 08:35:05;;;;;;;5.57;3.97;;;13.80;78.80;;;;;;5074518;28;20187;-87
2021/09/19 08:37:31;;;;;;;12.53;3.57;;;13.90;79.40;;;;;;5074682;28;20195;-87
2021/09/19 08:39:56;;;;;;;4.23;3.47;;;13.90;77.40;;;;;;5073327;28;20548;-87
2021/09/19 08:42:22;;;;;;;5.33;4.27;;;13.90;78.90;;;;;;5073184;28;20568;-87
2021/09/19 08:44:48;;;;;;;6.67;3.57;;;13.90;78.30;;;;;;5073362;28;20662;-88
2021/09/19 08:47:14;;;;;;;5.43;3.47;;;14.00;78.50;;;;;;5073001;28;20179;-87
2021/09/19 08:49:41;;;;;;;3.40;3.03;;;14.00;77.50;;;;;;5074398;28;20174;-87
2021/09/19 08:52:07;;;;;;;4.57;3.03;;;14.00;77.50;;;;;;5073025;28;20199;-87
2021/09/19 08:54:33;;;;;;;4.77;3.33;;;14.00;77.40;;;;;;5073018;28;20240;-87
2021/09/19 08:56:58;;;;;;;4.67;3.63;;;14.10;76.90;;;;;;5072999;28;20207;-87
2021/09/19 08:59:45;;;;;;;5.77;3.80;;;14.10;76.30;;;;;;5072758;28;20235;-88
2021/09/19 09:02:13;;;;;;;5.10;3.40;;;14.20;75.50;;;;;;5072822;28;20274;-87
2021/09/19 09:04:40;;;;;;;5.30;3.83;;;14.20;75.80;;;;;;5074372;28;20195;-87
2021/09/19 09:07:05;;;;;;;7.37;3.43;;;14.30;76.50;;;;;;5072789;28;20171;-87
2021/09/19 09:09:31;;;;;;;3.83;3.43;;;14.30;74.30;;;;;;5072723;28;20171;-87
2021/09/19 09:12:09;;;;;;;4.50;3.30;;;14.40;75.70;;;;;;5072617;28;20195;-87
2021/09/19 09:14:51;;;;;;;5.37;3.00;;;14.40;74.30;;;;;;5072566;28;20240;-87
2021/09/19 09:17:20;;;;;;;3.13;2.63;;;14.30;73.70;;;;;;5074084;28;20210;-87
2021/09/19 09:19:54;;;;;;;4.67;3.00;;;14.40;73.00;;;;;;5072518;28;20176;-87
2021/09/19 09:22:31;;;;;;;7.13;3.40;;;14.40;73.20;;;;;;5073736;28;20205;-87
2021/09/19 09:25:02;;;;;;;6.10;3.90;;;14.40;74.30;;;;;;5072504;28;20199;-87
2021/09/19 09:27:28;;;;;;;4.73;3.10;;;14.40;75.00;;;;;;5072971;28;20210;-87
2021/09/19 09:30:06;;;;;;;4.07;3.40;;;14.40;75.30;;;;;;5073305;28;20214;-87
2021/09/19 09:32:32;;;;;;;6.17;3.50;;;14.30;75.00;;;;;;5072250;28;20195;-87
2021/09/19 09:35:11;;;;;;;5.40;3.30;;;14.40;76.40;;;;;;5072303;28;20191;-87
2021/09/19 09:37:40;;;;;;;4.73;3.40;;;14.30;75.30;;;;;;5072165;28;20241;-87
2021/09/19 09:40:28;;;;;;;8.40;3.87;;;14.30;76.10;;;;;;5072294;28;20179;-87
2021/09/19 09:43:11;;;;;;;5.33;3.43;;;14.30;74.90;;;;;;5073363;28;20191;-87
2021/09/19 09:45:40;;;;;;;4.30;3.20;;;14.30;75.90;;;;;;5072336;28;20313;-87
2021/09/19 09:48:25;;;;;;;5.23;3.30;;;14.20;75.90;;;;;;5072053;28;20175;-87
2021/09/19 09:50:53;;;;;;;7.03;4.07;;;14.30;75.60;;;;;;5071625;28;20260;-87
2021/09/19 09:53:23;;;;;;;11.20;3.50;;;14.30;75.90;;;;;;5072085;28;20206;-87
2021/09/19 09:55:50;;;;;;;7.87;3.53;;;14.40;76.40;;;;;;5073456;28;20156;-88
2021/09/19 09:58:21;;;;;;;4.77;3.77;;;14.40;77.10;;;;;;5072241;28;20616;-87
2021/09/19 10:00:50;;;;;;;8.40;3.90;;;14.50;74.90;;;;;;5073427;28;20162;-87
2021/09/19 10:03:16;;;;;;;6.97;4.37;;;14.50;75.70;;;;;;5072015;28;20225;-87
2021/09/19 10:05:43;;;;;;;4.40;3.60;;;14.50;74.50;;;;;;5073182;28;20183;-87
2021/09/19 10:08:08;;;;;;;4.20;3.50;;;14.50;74.00;;;;;;5071889;28;20183;-87
2021/09/19 10:10:40;;;;;;;7.17;3.97;;;14.40;75.30;;;;;;5072220;28;20697;-87
2021/09/19 10:13:07;;;;;;;4.90;3.63;;;14.50;75.70;;;;;;5071928;28;20679;-87
2021/09/19 10:15:33;;;;;;;3.83;3.33;;;14.50;75.10;;;;;;5071862;28;20598;-87
2021/09/19 10:18:00;;;;;;;8.20;3.80;;;14.60;75.90;;;;;;5073010;28;20294;-87
2021/09/19 10:20:35;;;;;;;6.93;3.90;;;14.70;74.80;;;;;;5071754;28;20183;-87
2021/09/19 10:23:15;;;;;;;5.53;3.70;;;14.80;74.10;;;;;;5072963;28;20193;-87
2021/09/19 10:25:51;;;;;;;9.97;3.50;;;14.70;72.80;;;;;;5072936;28;20620;-87
2021/09/19 10:28:21;;;;;;;5.00;3.60;;;14.70;72.80;;;;;;5071705;28;20183;-87
2021/09/19 10:31:12;;;;;;;3.67;3.10;;;14.80;74.20;;;;;;5072982;28;20170;-87
2021/09/19 10:33:43;;;;;;;4.87;3.73;;;14.80;71.60;;;;;;5071811;28;20223;-87
2021/09/19 10:36:12;;;;;;;3.33;3.00;;;14.90;73.90;;;;;;5071792;28;20199;-87
2021/09/19 10:38:42;;;;;;;5.67;3.40;;;15.00;74.10;;;;;;5071578;28;20210;-87
2021/09/19 10:41:14;;;;;;;4.45;3.00;;;15.00;74.20;;;;;;5071820;28;20171;-87
2021/09/19 10:43:55;;;;;;;3.73;3.00;;;14.90;71.90;;;;;;5072735;28;20198;-87
2021/09/19 10:46:35;;;;;;;5.47;3.37;;;14.80;71.00;;;;;;5071581;28;20203;-87
2021/09/19 10:49:16;;;;;;;5.47;3.23;;;14.80;71.60;;;;;;5072813;28;20179;-87
2021/09/19 10:52:00;;;;;;;5.00;3.10;;;14.90;72.50;;;;;;5071492;28;20317;-87
2021/09/19 10:54:49;;;;;;;4.33;3.33;;;14.90;72.00;;;;;;5071649;28;20201;-87
2021/09/19 10:57:28;;;;;;;5.30;3.20;;;15.00;72.30;;;;;;5071281;28;20188;-87
2021/09/19 11:00:19;;;;;;;6.88;3.33;;;15.00;70.60;;;;;;5071442;28;20631;-87
2021/09/19 11:03:05;;;;;;;4.90;3.25;;;15.10;69.40;;;;;;5072152;28;20211;-87
2021/09/19 11:05:32;;;;;;;3.78;2.90;;;15.20;71.10;;;;;;5075072;28;20172;-87
2021/09/19 11:08:06;;;;;;;5.67;3.03;;;15.00;69.40;;;;;;5076247;28;20228;-87
2021/09/19 11:10:34;;;;;;;4.70;3.30;;;14.90;70.60;;;;;;5075113;28;20183;-87
2021/09/19 11:13:21;;;;;;;11.93;3.83;;;15.10;71.10;;;;;;5076041;28;20183;-87
2021/09/19 11:16:02;;;;;;;4.67;2.97;;;15.10;70.70;;;;;;5075210;28;20176;-87
2021/09/19 11:18:42;;;;;;;8.68;3.40;;;15.10;70.30;;;;;;5074974;28;20305;-87
2021/09/19 11:21:14;;;;;;;5.23;3.47;;;15.10;69.80;;;;;;5074840;28;20209;-87
2021/09/19 11:24:01;;;;;;;4.13;2.97;;;15.00;69.60;;;;;;5074715;28;20176;-87
2021/09/19 11:26:42;;;;;;;5.78;3.78;;;15.20;70.90;;;;;;5075851;28;20171;-87
2021/09/19 11:29:11;;;;;;;7.93;3.38;;;15.20;70.30;;;;;;5075244;28;20163;-87
2021/09/19 11:31:38;;;;;;;4.32;3.00;;;15.20;69.70;;;;;;5076002;28;20236;-87
2021/09/19 11:34:10;;;;;;;5.57;3.38;;;15.10;70.30;;;;;;5075621;28;20199;-87
2021/09/19 11:36:43;;;;;;;5.85;2.97;;;15.20;69.90;;;;;;5074537;28;20163;-87
2021/09/19 11:39:10;;;;;;;4.80;2.95;;;15.20;69.20;;;;;;5074496;28;20203;-87
2021/09/19 11:41:36;;;;;;;6.72;2.75;;;15.20;68.80;;;;;;5074382;28;20279;-87
2021/09/19 11:44:02;;;;;;;3.57;2.80;;;15.20;68.50;;;;;;5074421;28;20266;-87
2021/09/19 11:46:29;;;;;;;5.47;3.45;;;15.20;68.00;;;;;;5074241;28;20168;-87
2021/09/19 11:48:56;;;;;;;4.30;3.50;;;15.20;68.20;;;;;;5074260;28;20546;-87
2021/09/19 11:51:23;;;;;;;4.10;3.57;;;15.20;68.80;;;;;;5074191;28;20183;-87
2021/09/19 11:53:53;;;;;;;4.28;3.28;;;15.20;68.40;;;;;;5074124;28;20175;-87
2021/09/19 11:56:20;;;;;;;4.90;3.47;;;15.20;67.50;;;;;;5075326;28;20163;-87
2021/09/19 11:58:48;;;;;;;4.95;3.20;;;15.30;68.40;;;;;;5074176;28;20694;-85
2021/09/19 12:01:14;;;;;;;5.28;3.20;;;15.40;68.80;;;;;;5075321;28;20174;-86
2021/09/19 12:03:40;;;;;;;4.55;3.00;;;15.50;68.20;;;;;;5075365;28;20168;-86
2021/09/19 12:06:08;;;;;;;6.03;3.40;;;15.50;67.20;;;;;;5073983;28;20171;-86
2021/09/19 12:08:35;;;;;;;5.18;3.25;;;15.50;67.40;;;;;;5074984;28;20547;-86
2021/09/19 12:11:02;;;;;;;7.97;3.10;;;15.50;67.40;;;;;;5075208;28;20232;-86
2021/09/19 12:13:31;;;;;;;6.57;3.47;;;15.60;67.30;;;;;;5073595;28;20547;-86
2021/09/19 12:16:15;;;;;;;4.82;3.42;;;15.50;66.20;;;;;;5074183;28;20266;-85
2021/09/19 12:18:46;;;;;;;3.45;3.15;;;15.60;67.90;;;;;;5073838;28;20206;-86
2021/09/19 12:21:18;;;;;;;4.80;3.33;;;15.70;68.00;;;;;;5075087;28;20166;-86
2021/09/19 12:23:45;;;;;;;7.80;3.45;;;15.70;70.60;;;;;;5075000;28;20156;-86
2021/09/19 12:26:20;;;;;;;5.63;3.40;;;15.70;68.40;;;;;;5073747;28;20258;-86
2021/09/19 12:28:55;;;;;;;5.72;3.40;;;15.70;67.50;;;;;;5073791;28;20228;-85
2021/09/19 12:31:41;;;;;;;5.05;3.65;;;15.70;68.30;;;;;;5073583;28;20745;-85
2021/09/19 12:34:11;;;;;;;5.88;3.60;;;15.70;69.10;;;;;;5074820;28;20175;-86
2021/09/19 12:37:03;;;;;;;3.92;3.25;;;15.60;66.60;;;;;;5073433;28;20179;-86
2021/09/19 12:39:32;;;;;;;6.75;3.42;;;15.70;67.50;;;;;;5071278;28;20291;-85
2021/09/19 12:42:03;;;;;;;3.80;2.75;;;15.80;68.60;;;;;;5073357;28;20697;-86
2021/09/19 12:44:31;;;;;;;6.18;3.17;;;15.80;67.70;;;;;;5073284;28;20179;-86
2021/09/19 12:46:59;;;;;;;8.02;3.03;;;15.90;69.10;;;;;;5073259;28;20225;-86
2021/09/19 12:49:31;;;;;;;5.07;3.28;;;16.00;70.60;;;;;;5073172;28;20700;-86